sensor_id;sensor_type;location;lat;lon;timestamp;temperature;humidity
75838;SHT30;64480;52.040;113.502;2024-02-26T00:00:34;-21.65;56.78
75838;SHT30;64480;52.040;113.502;2024-02-26T00:03:39;-21.52;56.75
75838;SHT30;64480;52.040;113.502;2024-02-26T00:06:45;-21.41;56.88
75838;SHT30;64480;52.040;113.502;2024-02-26T00:09:48;-21.20;56.29
75838;SHT30;64480;52.040;113.502;2024-02-26T00:12:52;-21.11;54.04
75838;SHT30;64480;52.040;113.502;2024-02-26T00:15:56;-21.08;52.56
75838;SHT30;64480;52.040;113.502;2024-02-26T00:19:00;-20.97;52.36
75838;SHT30;64480;52.040;113.502;2024-02-26T00:22:05;-20.90;51.55
75838;SHT30;64480;52.040;113.502;2024-02-26T00:25:08;-20.71;51.25
75838;SHT30;64480;52.040;113.502;2024-02-26T00:28:13;-20.51;51.04
75838;SHT30;64480;52.040;113.502;2024-02-26T00:31:17;-20.29;50.41
75838;SHT30;64480;52.040;113.502;2024-02-26T00:34:25;-20.03;50.33
75838;SHT30;64480;52.040;113.502;2024-02-26T00:37:28;-19.98;49.63
75838;SHT30;64480;52.040;113.502;2024-02-26T00:40:31;-20.05;49.29
75838;SHT30;64480;52.040;113.502;2024-02-26T00:43:35;-20.03;49.04
75838;SHT30;64480;52.040;113.502;2024-02-26T00:46:41;-20.12;49.14
75838;SHT30;64480;52.040;113.502;2024-02-26T00:49:45;-20.37;48.95
75838;SHT30;64480;52.040;113.502;2024-02-26T00:52:49;-20.52;49.49
75838;SHT30;64480;52.040;113.502;2024-02-26T00:55:53;-20.57;50.17
75838;SHT30;64480;52.040;113.502;2024-02-26T00:58:58;-20.69;50.12
75838;SHT30;64480;52.040;113.502;2024-02-26T01:02:02;-20.86;50.43
75838;SHT30;64480;52.040;113.502;2024-02-26T01:05:08;-20.86;51.12
75838;SHT30;64480;52.040;113.502;2024-02-26T01:08:15;-20.73;51.94
75838;SHT30;64480;52.040;113.502;2024-02-26T01:11:19;-20.54;52.01
75838;SHT30;64480;52.040;113.502;2024-02-26T01:14:27;-20.38;52.03
75838;SHT30;64480;52.040;113.502;2024-02-26T01:17:31;-20.17;52.03
75838;SHT30;64480;52.040;113.502;2024-02-26T01:20:35;-19.91;52.38
75838;SHT30;64480;52.040;113.502;2024-02-26T01:23:40;-19.67;51.82
75838;SHT30;64480;52.040;113.502;2024-02-26T01:26:43;-19.47;51.19
75838;SHT30;64480;52.040;113.502;2024-02-26T01:29:46;-19.33;50.41
75838;SHT30;64480;52.040;113.502;2024-02-26T01:32:51;-19.29;50.07
75838;SHT30;64480;52.040;113.502;2024-02-26T01:35:54;-19.00;50.16
75838;SHT30;64480;52.040;113.502;2024-02-26T01:38:58;-18.87;50.08
75838;SHT30;64480;52.040;113.502;2024-02-26T01:42:02;-18.80;49.40
75838;SHT30;64480;52.040;113.502;2024-02-26T01:45:13;-18.87;48.98
75838;SHT30;64480;52.040;113.502;2024-02-26T01:48:19;-18.96;49.11
75838;SHT30;64480;52.040;113.502;2024-02-26T01:51:26;-19.09;49.59
75838;SHT30;64480;52.040;113.502;2024-02-26T01:57:53;-18.98;50.39
75838;SHT30;64480;52.040;113.502;2024-02-26T02:00:58;-18.92;50.78
75838;SHT30;64480;52.040;113.502;2024-02-26T02:04:03;-18.88;50.34
75838;SHT30;64480;52.040;113.502;2024-02-26T02:07:07;-18.89;50.20
75838;SHT30;64480;52.040;113.502;2024-02-26T02:10:11;-18.78;50.37
75838;SHT30;64480;52.040;113.502;2024-02-26T02:13:15;-18.67;50.44
75838;SHT30;64480;52.040;113.502;2024-02-26T02:16:19;-18.59;50.04
75838;SHT30;64480;52.040;113.502;2024-02-26T02:19:23;-18.49;49.89
75838;SHT30;64480;52.040;113.502;2024-02-26T02:22:27;-18.33;49.81
75838;SHT30;64480;52.040;113.502;2024-02-26T02:25:31;-18.16;49.47
75838;SHT30;64480;52.040;113.502;2024-02-26T02:28:35;-17.94;49.48
75838;SHT30;64480;52.040;113.502;2024-02-26T02:31:39;-17.93;49.10
75838;SHT30;64480;52.040;113.502;2024-02-26T02:34:45;-17.77;49.13
75838;SHT30;64480;52.040;113.502;2024-02-26T02:37:53;-17.81;49.11
75838;SHT30;64480;52.040;113.502;2024-02-26T02:40:57;-17.81;49.36
75838;SHT30;64480;52.040;113.502;2024-02-26T02:44:01;-17.78;49.74
75838;SHT30;64480;52.040;113.502;2024-02-26T02:47:05;-17.76;49.82
75838;SHT30;64480;52.040;113.502;2024-02-26T02:50:11;-17.73;50.28
75838;SHT30;64480;52.040;113.502;2024-02-26T02:53:15;-17.71;50.11
75838;SHT30;64480;52.040;113.502;2024-02-26T02:56:22;-17.69;50.60
75838;SHT30;64480;52.040;113.502;2024-02-26T02:59:26;-17.71;50.54
75838;SHT30;64480;52.040;113.502;2024-02-26T03:02:30;-17.58;51.54
75838;SHT30;64480;52.040;113.502;2024-02-26T03:05:33;-17.41;51.86
75838;SHT30;64480;52.040;113.502;2024-02-26T03:08:36;-17.13;51.79
75838;SHT30;64480;52.040;113.502;2024-02-26T03:11:46;-17.07;50.71
75838;SHT30;64480;52.040;113.502;2024-02-26T03:14:52;-16.96;51.01
75838;SHT30;64480;52.040;113.502;2024-02-26T03:17:57;-16.83;51.13
75838;SHT30;64480;52.040;113.502;2024-02-26T03:21:00;-16.82;50.68
75838;SHT30;64480;52.040;113.502;2024-02-26T03:24:04;-16.62;51.06
75838;SHT30;64480;52.040;113.502;2024-02-26T03:27:08;-16.52;50.68
75838;SHT30;64480;52.040;113.502;2024-02-26T03:30:13;-16.32;50.56
75838;SHT30;64480;52.040;113.502;2024-02-26T03:33:17;-16.18;50.60
75838;SHT30;64480;52.040;113.502;2024-02-26T03:36:20;-16.06;50.56
75838;SHT30;64480;52.040;113.502;2024-02-26T03:39:27;-15.73;50.70
75838;SHT30;64480;52.040;113.502;2024-02-26T03:42:31;-15.59;49.98
75838;SHT30;64480;52.040;113.502;2024-02-26T03:45:35;-15.55;49.55
75838;SHT30;64480;52.040;113.502;2024-02-26T03:48:42;-15.33;49.55
75838;SHT30;64480;52.040;113.502;2024-02-26T03:51:48;-15.19;49.13
75838;SHT30;64480;52.040;113.502;2024-02-26T03:54:55;-15.00;49.29
75838;SHT30;64480;52.040;113.502;2024-02-26T03:58:02;-14.72;49.40
75838;SHT30;64480;52.040;113.502;2024-02-26T04:01:10;-14.51;48.73
75838;SHT30;64480;52.040;113.502;2024-02-26T04:04:14;-14.30;49.01
75838;SHT30;64480;52.040;113.502;2024-02-26T04:07:18;-14.26;47.88
75838;SHT30;64480;52.040;113.502;2024-02-26T04:10:22;-14.28;47.57
75838;SHT30;64480;52.040;113.502;2024-02-26T04:13:26;-14.21;48.03
75838;SHT30;64480;52.040;113.502;2024-02-26T04:16:29;-14.02;48.31
75838;SHT30;64480;52.040;113.502;2024-02-26T04:19:33;-13.91;48.19
75838;SHT30;64480;52.040;113.502;2024-02-26T04:22:36;-13.74;47.96
75838;SHT30;64480;52.040;113.502;2024-02-26T04:25:40;-13.44;48.21
75838;SHT30;64480;52.040;113.502;2024-02-26T04:28:43;-13.11;47.54
75838;SHT30;64480;52.040;113.502;2024-02-26T04:31:50;-12.81;47.02
75838;SHT30;64480;52.040;113.502;2024-02-26T04:34:54;-12.62;46.64
75838;SHT30;64480;52.040;113.502;2024-02-26T04:37:58;-12.46;46.40
75838;SHT30;64480;52.040;113.502;2024-02-26T04:41:02;-12.29;46.63
75838;SHT30;64480;52.040;113.502;2024-02-26T04:44:05;-12.18;45.84
75838;SHT30;64480;52.040;113.502;2024-02-26T04:47:09;-12.31;45.48
75838;SHT30;64480;52.040;113.502;2024-02-26T04:50:14;-12.20;45.71
75838;SHT30;64480;52.040;113.502;2024-02-26T04:53:17;-12.00;45.87
75838;SHT30;64480;52.040;113.502;2024-02-26T04:56:26;-11.87;45.44
75838;SHT30;64480;52.040;113.502;2024-02-26T04:59:30;-11.82;44.95
75838;SHT30;64480;52.040;113.502;2024-02-26T05:02:34;-11.62;45.47
75838;SHT30;64480;52.040;113.502;2024-02-26T05:05:43;-11.56;44.62
75838;SHT30;64480;52.040;113.502;2024-02-26T05:08:51;-11.35;45.05
75838;SHT30;64480;52.040;113.502;2024-02-26T05:11:55;-11.13;44.18
75838;SHT30;64480;52.040;113.502;2024-02-26T05:14:59;-11.01;43.32
75838;SHT30;64480;52.040;113.502;2024-02-26T05:18:03;-10.93;42.30
75838;SHT30;64480;52.040;113.502;2024-02-26T05:21:08;-10.83;42.24
75838;SHT30;64480;52.040;113.502;2024-02-26T05:24:12;-10.75;42.14
75838;SHT30;64480;52.040;113.502;2024-02-26T05:27:16;-10.69;40.79
75838;SHT30;64480;52.040;113.502;2024-02-26T05:30:19;-10.53;41.68
75838;SHT30;64480;52.040;113.502;2024-02-26T05:33:23;-10.44;39.30
75838;SHT30;64480;52.040;113.502;2024-02-26T05:36:26;-10.33;39.25
75838;SHT30;64480;52.040;113.502;2024-02-26T05:39:31;-10.18;39.65
75838;SHT30;64480;52.040;113.502;2024-02-26T05:42:35;-9.97;39.25
75838;SHT30;64480;52.040;113.502;2024-02-26T05:45:38;-9.85;38.34
75838;SHT30;64480;52.040;113.502;2024-02-26T05:48:42;-9.92;36.01
75838;SHT30;64480;52.040;113.502;2024-02-26T05:51:48;-10.00;35.87
75838;SHT30;64480;52.040;113.502;2024-02-26T05:54:51;-9.92;37.32
75838;SHT30;64480;52.040;113.502;2024-02-26T05:57:55;-9.86;36.63
75838;SHT30;64480;52.040;113.502;2024-02-26T06:00:59;-9.79;36.07
75838;SHT30;64480;52.040;113.502;2024-02-26T06:04:03;-9.66;35.62
75838;SHT30;64480;52.040;113.502;2024-02-26T06:07:06;-9.58;36.17
75838;SHT30;64480;52.040;113.502;2024-02-26T06:10:10;-9.50;35.45
75838;SHT30;64480;52.040;113.502;2024-02-26T06:13:13;-9.52;35.01
75838;SHT30;64480;52.040;113.502;2024-02-26T06:16:19;-9.47;35.17
75838;SHT30;64480;52.040;113.502;2024-02-26T06:19:23;-9.42;34.24
75838;SHT30;64480;52.040;113.502;2024-02-26T06:22:27;-9.45;33.92
75838;SHT30;64480;52.040;113.502;2024-02-26T06:25:30;-9.45;33.71
75838;SHT30;64480;52.040;113.502;2024-02-26T06:28:34;-9.44;33.95
75838;SHT30;64480;52.040;113.502;2024-02-26T06:31:39;-9.34;33.99
75838;SHT30;64480;52.040;113.502;2024-02-26T06:34:43;-9.33;33.14
75838;SHT30;64480;52.040;113.502;2024-02-26T06:37:53;-9.33;33.14
75838;SHT30;64480;52.040;113.502;2024-02-26T06:40:57;-9.31;33.24
75838;SHT30;64480;52.040;113.502;2024-02-26T06:44:01;-9.37;32.70
75838;SHT30;64480;52.040;113.502;2024-02-26T06:47:06;-9.45;32.88
75838;SHT30;64480;52.040;113.502;2024-02-26T06:50:12;-9.38;33.11
75838;SHT30;64480;52.040;113.502;2024-02-26T06:53:18;-9.22;33.80
75838;SHT30;64480;52.040;113.502;2024-02-26T06:56:22;-9.17;33.00
75838;SHT30;64480;52.040;113.502;2024-02-26T06:59:26;-9.22;32.16
75838;SHT30;64480;52.040;113.502;2024-02-26T07:02:29;-9.13;32.37
75838;SHT30;64480;52.040;113.502;2024-02-26T07:05:33;-9.07;31.93
75838;SHT30;64480;52.040;113.502;2024-02-26T07:08:37;-9.10;32.42
75838;SHT30;64480;52.040;113.502;2024-02-26T07:11:40;-9.14;32.07
75838;SHT30;64480;52.040;113.502;2024-02-26T07:14:45;-9.10;31.80
75838;SHT30;64480;52.040;113.502;2024-02-26T07:17:53;-9.07;31.63
75838;SHT30;64480;52.040;113.502;2024-02-26T07:20:57;-9.03;31.34
75838;SHT30;64480;52.040;113.502;2024-02-26T07:24:01;-8.95;31.72
75838;SHT30;64480;52.040;113.502;2024-02-26T07:27:04;-9.00;31.15
75838;SHT30;64480;52.040;113.502;2024-02-26T07:30:09;-8.99;30.78
75838;SHT30;64480;52.040;113.502;2024-02-26T07:33:12;-8.91;31.07
75838;SHT30;64480;52.040;113.502;2024-02-26T07:36:16;-8.89;31.12
75838;SHT30;64480;52.040;113.502;2024-02-26T07:39:20;-8.82;30.68
75838;SHT30;64480;52.040;113.502;2024-02-26T07:42:24;-8.91;28.88
75838;SHT30;64480;52.040;113.502;2024-02-26T07:45:27;-8.91;29.53
75838;SHT30;64480;52.040;113.502;2024-02-26T07:48:31;-9.00;29.56
75838;SHT30;64480;52.040;113.502;2024-02-26T07:51:35;-8.95;29.88
75838;SHT30;64480;52.040;113.502;2024-02-26T07:54:40;-8.84;30.25
75838;SHT30;64480;52.040;113.502;2024-02-26T07:57:43;-8.71;30.13
75838;SHT30;64480;52.040;113.502;2024-02-26T08:00:49;-8.76;28.84
75838;SHT30;64480;52.040;113.502;2024-02-26T08:03:54;-8.79;29.19
75838;SHT30;64480;52.040;113.502;2024-02-26T08:07:00;-8.86;28.72
75838;SHT30;64480;52.040;113.502;2024-02-26T08:10:04;-8.99;28.62
75838;SHT30;64480;52.040;113.502;2024-02-26T08:13:07;-9.07;28.35
75838;SHT30;64480;52.040;113.502;2024-02-26T08:16:11;-9.07;27.85
75838;SHT30;64480;52.040;113.502;2024-02-26T08:19:15;-9.13;27.96
75838;SHT30;64480;52.040;113.502;2024-02-26T08:22:19;-9.20;27.96
75838;SHT30;64480;52.040;113.502;2024-02-26T08:25:23;-9.31;27.61
75838;SHT30;64480;52.040;113.502;2024-02-26T08:28:28;-9.41;27.35
75838;SHT30;64480;52.040;113.502;2024-02-26T08:31:31;-9.34;28.20
75838;SHT30;64480;52.040;113.502;2024-02-26T08:34:35;-9.34;27.32
75838;SHT30;64480;52.040;113.502;2024-02-26T08:37:38;-9.48;26.81
75838;SHT30;64480;52.040;113.502;2024-02-26T08:40:42;-9.47;27.45
75838;SHT30;64480;52.040;113.502;2024-02-26T08:43:46;-9.51;27.20
75838;SHT30;64480;52.040;113.502;2024-02-26T08:46:52;-9.48;27.66
75838;SHT30;64480;52.040;113.502;2024-02-26T08:49:55;-9.51;27.19
75838;SHT30;64480;52.040;113.502;2024-02-26T08:52:58;-9.52;28.00
75838;SHT30;64480;52.040;113.502;2024-02-26T08:56:09;-9.56;27.96
75838;SHT30;64480;52.040;113.502;2024-02-26T08:59:15;-9.69;28.96
75838;SHT30;64480;52.040;113.502;2024-02-26T09:02:19;-9.71;29.94
75838;SHT30;64480;52.040;113.502;2024-02-26T09:05:23;-9.75;29.84
75838;SHT30;64480;52.040;113.502;2024-02-26T09:08:26;-9.83;30.39
75838;SHT30;64480;52.040;113.502;2024-02-26T09:11:30;-9.88;30.36
75838;SHT30;64480;52.040;113.502;2024-02-26T09:14:34;-9.96;30.77
75838;SHT30;64480;52.040;113.502;2024-02-26T09:17:37;-10.02;31.61
75838;SHT30;64480;52.040;113.502;2024-02-26T09:20:41;-10.07;31.32
75838;SHT30;64480;52.040;113.502;2024-02-26T09:23:45;-10.17;31.86
75838;SHT30;64480;52.040;113.502;2024-02-26T09:26:55;-10.25;32.29
75838;SHT30;64480;52.040;113.502;2024-02-26T09:29:59;-10.34;32.16
75838;SHT30;64480;52.040;113.502;2024-02-26T09:33:04;-10.41;32.48
75838;SHT30;64480;52.040;113.502;2024-02-26T09:36:07;-10.52;32.34
75838;SHT30;64480;52.040;113.502;2024-02-26T09:39:13;-10.59;32.50
75838;SHT30;64480;52.040;113.502;2024-02-26T09:42:25;-10.66;32.61
75838;SHT30;64480;52.040;113.502;2024-02-26T09:45:28;-10.76;32.81
75838;SHT30;64480;52.040;113.502;2024-02-26T09:48:35;-10.86;33.00
75838;SHT30;64480;52.040;113.502;2024-02-26T09:51:40;-10.95;33.34
75838;SHT30;64480;52.040;113.502;2024-02-26T09:54:47;-11.01;33.75
75838;SHT30;64480;52.040;113.502;2024-02-26T09:57:54;-11.11;33.82
75838;SHT30;64480;52.040;113.502;2024-02-26T10:01:02;-11.21;34.08
75838;SHT30;64480;52.040;113.502;2024-02-26T10:04:09;-11.32;33.83
75838;SHT30;64480;52.040;113.502;2024-02-26T10:07:14;-11.35;33.96
75838;SHT30;64480;52.040;113.502;2024-02-26T10:10:18;-11.46;34.41
75838;SHT30;64480;52.040;113.502;2024-02-26T10:13:22;-11.53;34.62
75838;SHT30;64480;52.040;113.502;2024-02-26T10:16:25;-11.61;34.79
75838;SHT30;64480;52.040;113.502;2024-02-26T10:19:30;-11.69;34.87
75838;SHT30;64480;52.040;113.502;2024-02-26T10:22:39;-11.73;34.87
75838;SHT30;64480;52.040;113.502;2024-02-26T10:25:55;-11.83;34.82
75838;SHT30;64480;52.040;113.502;2024-02-26T10:28:59;-11.86;35.02
75838;SHT30;64480;52.040;113.502;2024-02-26T10:32:05;-11.93;35.27
75838;SHT30;64480;52.040;113.502;2024-02-26T10:35:09;-11.95;35.20
75838;SHT30;64480;52.040;113.502;2024-02-26T10:38:13;-11.97;35.22
75838;SHT30;64480;52.040;113.502;2024-02-26T10:41:23;-12.02;35.55
75838;SHT30;64480;52.040;113.502;2024-02-26T10:44:26;-12.10;35.39
75838;SHT30;64480;52.040;113.502;2024-02-26T10:47:30;-12.17;35.57
75838;SHT30;64480;52.040;113.502;2024-02-26T10:50:36;-12.18;35.42
75838;SHT30;64480;52.040;113.502;2024-02-26T10:53:42;-12.22;36.00
75838;SHT30;64480;52.040;113.502;2024-02-26T10:56:47;-12.25;36.00
75838;SHT30;64480;52.040;113.502;2024-02-26T10:59:57;-12.28;35.69
75838;SHT30;64480;52.040;113.502;2024-02-26T11:03:01;-12.29;35.72
75838;SHT30;64480;52.040;113.502;2024-02-26T11:06:06;-12.34;35.72
75838;SHT30;64480;52.040;113.502;2024-02-26T11:09:12;-12.39;36.05
75838;SHT30;64480;52.040;113.502;2024-02-26T11:12:18;-12.44;36.27
75838;SHT30;64480;52.040;113.502;2024-02-26T11:15:24;-12.48;36.22
75838;SHT30;64480;52.040;113.502;2024-02-26T11:18:28;-12.53;36.33
75838;SHT30;64480;52.040;113.502;2024-02-26T11:21:33;-12.56;36.87
75838;SHT30;64480;52.040;113.502;2024-02-26T11:24:44;-12.62;36.51
75838;SHT30;64480;52.040;113.502;2024-02-26T11:27:56;-12.67;36.52
75838;SHT30;64480;52.040;113.502;2024-02-26T11:31:02;-12.69;36.78
75838;SHT30;64480;52.040;113.502;2024-02-26T11:34:09;-12.70;36.78
75838;SHT30;64480;52.040;113.502;2024-02-26T11:37:17;-12.76;36.97
75838;SHT30;64480;52.040;113.502;2024-02-26T11:40:23;-12.74;37.02
75838;SHT30;64480;52.040;113.502;2024-02-26T11:43:59;-12.80;37.04
75838;SHT30;64480;52.040;113.502;2024-02-26T11:47:19;-12.88;37.53
75838;SHT30;64480;52.040;113.502;2024-02-26T11:50:41;-12.97;38.25
75838;SHT30;64480;52.040;113.502;2024-02-26T11:53:48;-13.02;38.85
75838;SHT30;64480;52.040;113.502;2024-02-26T11:56:53;-13.11;38.95
75838;SHT30;64480;52.040;113.502;2024-02-26T12:00:12;-13.16;39.66
75838;SHT30;64480;52.040;113.502;2024-02-26T12:03:16;-13.22;40.58
75838;SHT30;64480;52.040;113.502;2024-02-26T12:06:21;-13.23;40.17
75838;SHT30;64480;52.040;113.502;2024-02-26T12:09:36;-13.23;40.35
75838;SHT30;64480;52.040;113.502;2024-02-26T12:12:42;-13.28;39.94
75838;SHT30;64480;52.040;113.502;2024-02-26T12:15:56;-13.42;41.02
75838;SHT30;64480;52.040;113.502;2024-02-26T12:19:08;-13.50;41.80
75838;SHT30;64480;52.040;113.502;2024-02-26T12:22:15;-13.64;42.10
75838;SHT30;64480;52.040;113.502;2024-02-26T12:25:22;-13.73;42.20
75838;SHT30;64480;52.040;113.502;2024-02-26T12:28:29;-13.79;42.13
75838;SHT30;64480;52.040;113.502;2024-02-26T12:31:34;-13.88;43.08
75838;SHT30;64480;52.040;113.502;2024-02-26T12:34:40;-14.01;43.85
75838;SHT30;64480;52.040;113.502;2024-02-26T12:37:44;-14.15;44.61
75838;SHT30;64480;52.040;113.502;2024-02-26T12:40:47;-14.23;45.05
75838;SHT30;64480;52.040;113.502;2024-02-26T12:43:54;-14.28;45.08
75838;SHT30;64480;52.040;113.502;2024-02-26T12:47:00;-14.42;45.77
75838;SHT30;64480;52.040;113.502;2024-02-26T12:50:07;-14.54;45.81
75838;SHT30;64480;52.040;113.502;2024-02-26T12:53:11;-14.61;46.28
75838;SHT30;64480;52.040;113.502;2024-02-26T12:56:18;-14.74;46.26
75838;SHT30;64480;52.040;113.502;2024-02-26T12:59:24;-14.87;45.37
75838;SHT30;64480;52.040;113.502;2024-02-26T13:02:30;-14.99;45.10
75838;SHT30;64480;52.040;113.502;2024-02-26T13:05:35;-15.12;45.08
75838;SHT30;64480;52.040;113.502;2024-02-26T13:08:40;-15.26;45.34
75838;SHT30;64480;52.040;113.502;2024-02-26T13:11:43;-15.37;45.62
75838;SHT30;64480;52.040;113.502;2024-02-26T13:14:48;-15.43;45.82
75838;SHT30;64480;52.040;113.502;2024-02-26T13:18:09;-15.47;46.10
75838;SHT30;64480;52.040;113.502;2024-02-26T13:21:15;-15.44;46.18
75838;SHT30;64480;52.040;113.502;2024-02-26T13:24:20;-15.48;46.04
75838;SHT30;64480;52.040;113.502;2024-02-26T13:27:24;-15.41;46.09
75838;SHT30;64480;52.040;113.502;2024-02-26T13:30:28;-15.44;46.47
75838;SHT30;64480;52.040;113.502;2024-02-26T13:33:31;-15.44;46.83
75838;SHT30;64480;52.040;113.502;2024-02-26T13:36:38;-15.44;46.05
75838;SHT30;64480;52.040;113.502;2024-02-26T13:39:42;-15.47;46.04
75838;SHT30;64480;52.040;113.502;2024-02-26T13:42:46;-15.44;46.49
75838;SHT30;64480;52.040;113.502;2024-02-26T13:45:54;-15.45;46.79
75838;SHT30;64480;52.040;113.502;2024-02-26T13:48:58;-15.44;47.01
75838;SHT30;64480;52.040;113.502;2024-02-26T13:52:02;-15.45;47.42
75838;SHT30;64480;52.040;113.502;2024-02-26T13:55:06;-15.47;47.71
75838;SHT30;64480;52.040;113.502;2024-02-26T13:58:12;-15.50;47.47
75838;SHT30;64480;52.040;113.502;2024-02-26T14:01:17;-15.61;47.14
75838;SHT30;64480;52.040;113.502;2024-02-26T14:04:21;-15.66;46.73
75838;SHT30;64480;52.040;113.502;2024-02-26T14:07:24;-15.72;46.79
75838;SHT30;64480;52.040;113.502;2024-02-26T14:10:28;-15.73;47.25
75838;SHT30;64480;52.040;113.502;2024-02-26T14:13:33;-15.85;47.37
75838;SHT30;64480;52.040;113.502;2024-02-26T14:16:42;-15.90;47.82
75838;SHT30;64480;52.040;113.502;2024-02-26T14:19:47;-15.93;47.97
75838;SHT30;64480;52.040;113.502;2024-02-26T14:22:54;-15.94;48.04
75838;SHT30;64480;52.040;113.502;2024-02-26T14:25:58;-15.97;48.21
75838;SHT30;64480;52.040;113.502;2024-02-26T14:29:07;-16.00;48.63
75838;SHT30;64480;52.040;113.502;2024-02-26T14:32:12;-16.03;48.57
75838;SHT30;64480;52.040;113.502;2024-02-26T14:35:15;-16.06;48.61
75838;SHT30;64480;52.040;113.502;2024-02-26T14:38:19;-16.09;48.95
75838;SHT30;64480;52.040;113.502;2024-02-26T14:41:22;-16.09;48.97
75838;SHT30;64480;52.040;113.502;2024-02-26T14:44:26;-16.13;48.72
75838;SHT30;64480;52.040;113.502;2024-02-26T14:47:30;-16.13;48.59
75838;SHT30;64480;52.040;113.502;2024-02-26T14:50:34;-16.14;48.39
75838;SHT30;64480;52.040;113.502;2024-02-26T14:53:39;-16.13;48.46
75838;SHT30;64480;52.040;113.502;2024-02-26T14:56:46;-16.14;48.69
75838;SHT30;64480;52.040;113.502;2024-02-26T14:59:50;-16.16;48.92
75838;SHT30;64480;52.040;113.502;2024-02-26T15:02:56;-16.30;49.16
75838;SHT30;64480;52.040;113.502;2024-02-26T15:06:00;-16.51;49.63
75838;SHT30;64480;52.040;113.502;2024-02-26T15:09:03;-16.77;50.46
75838;SHT30;64480;52.040;113.502;2024-02-26T15:12:07;-17.03;50.96
75838;SHT30;64480;52.040;113.502;2024-02-26T15:15:12;-17.21;51.32
75838;SHT30;64480;52.040;113.502;2024-02-26T15:18:15;-17.38;51.54
75838;SHT30;64480;52.040;113.502;2024-02-26T15:21:19;-17.50;51.85
75838;SHT30;64480;52.040;113.502;2024-02-26T15:24:22;-17.52;52.12
75838;SHT30;64480;52.040;113.502;2024-02-26T15:27:26;-17.56;52.49
75838;SHT30;64480;52.040;113.502;2024-02-26T15:30:32;-17.59;52.57
75838;SHT30;64480;52.040;113.502;2024-02-26T15:33:35;-17.67;52.60
75838;SHT30;64480;52.040;113.502;2024-02-26T15:36:40;-17.70;52.80
75838;SHT30;64480;52.040;113.502;2024-02-26T15:39:43;-17.74;52.83
75838;SHT30;64480;52.040;113.502;2024-02-26T15:42:47;-17.70;53.30
75838;SHT30;64480;52.040;113.502;2024-02-26T15:45:51;-17.62;53.34
75838;SHT30;64480;52.040;113.502;2024-02-26T15:48:58;-17.50;52.42
75838;SHT30;64480;52.040;113.502;2024-02-26T15:52:02;-17.70;51.69
75838;SHT30;64480;52.040;113.502;2024-02-26T15:55:11;-17.73;52.09
75838;SHT30;64480;52.040;113.502;2024-02-26T15:58:23;-17.71;52.41
75838;SHT30;64480;52.040;113.502;2024-02-26T16:01:27;-17.70;52.85
75838;SHT30;64480;52.040;113.502;2024-02-26T16:04:33;-17.84;52.86
75838;SHT30;64480;52.040;113.502;2024-02-26T16:07:44;-17.95;53.05
75838;SHT30;64480;52.040;113.502;2024-02-26T16:10:48;-17.98;53.31
75838;SHT30;64480;52.040;113.502;2024-02-26T16:13:59;-18.07;53.17
75838;SHT30;64480;52.040;113.502;2024-02-26T16:17:25;-17.97;53.40
75838;SHT30;64480;52.040;113.502;2024-02-26T16:20:30;-18.07;53.18
75838;SHT30;64480;52.040;113.502;2024-02-26T16:23:33;-18.22;53.52
75838;SHT30;64480;52.040;113.502;2024-02-26T16:26:37;-18.37;53.78
75838;SHT30;64480;52.040;113.502;2024-02-26T16:29:40;-18.44;54.16
75838;SHT30;64480;52.040;113.502;2024-02-26T16:32:45;-18.53;54.24
75838;SHT30;64480;52.040;113.502;2024-02-26T16:35:48;-18.54;54.47
75838;SHT30;64480;52.040;113.502;2024-02-26T16:38:52;-18.52;54.69
75838;SHT30;64480;52.040;113.502;2024-02-26T16:41:57;-18.53;54.69
75838;SHT30;64480;52.040;113.502;2024-02-26T16:45:01;-18.60;54.70
75838;SHT30;64480;52.040;113.502;2024-02-26T16:48:06;-18.60;54.58
75838;SHT30;64480;52.040;113.502;2024-02-26T16:51:11;-18.68;54.27
75838;SHT30;64480;52.040;113.502;2024-02-26T16:54:14;-18.81;54.27
75838;SHT30;64480;52.040;113.502;2024-02-26T16:57:18;-18.82;54.49
75838;SHT30;64480;52.040;113.502;2024-02-26T17:00:26;-18.91;54.27
75838;SHT30;64480;52.040;113.502;2024-02-26T17:03:30;-19.05;53.92
75838;SHT30;64480;52.040;113.502;2024-02-26T17:06:34;-19.16;53.97
75838;SHT30;64480;52.040;113.502;2024-02-26T17:09:37;-19.29;54.32
75838;SHT30;64480;52.040;113.502;2024-02-26T17:12:40;-19.49;54.80
75838;SHT30;64480;52.040;113.502;2024-02-26T17:15:43;-19.65;55.23
75838;SHT30;64480;52.040;113.502;2024-02-26T17:18:47;-19.70;55.82
75838;SHT30;64480;52.040;113.502;2024-02-26T17:21:51;-19.61;56.18
75838;SHT30;64480;52.040;113.502;2024-02-26T17:24:57;-19.60;56.01
75838;SHT30;64480;52.040;113.502;2024-02-26T17:28:02;-19.64;55.61
75838;SHT30;64480;52.040;113.502;2024-02-26T17:31:06;-19.65;55.33
75838;SHT30;64480;52.040;113.502;2024-02-26T17:34:10;-19.70;55.06
75838;SHT30;64480;52.040;113.502;2024-02-26T17:37:14;-19.70;54.91
75838;SHT30;64480;52.040;113.502;2024-02-26T17:40:17;-19.71;54.75
75838;SHT30;64480;52.040;113.502;2024-02-26T17:43:21;-19.74;54.45
75838;SHT30;64480;52.040;113.502;2024-02-26T17:46:24;-19.79;54.12
75838;SHT30;64480;52.040;113.502;2024-02-26T17:49:27;-19.82;54.16
75838;SHT30;64480;52.040;113.502;2024-02-26T17:52:31;-19.81;54.04
75838;SHT30;64480;52.040;113.502;2024-02-26T17:55:39;-19.91;53.86
75838;SHT30;64480;52.040;113.502;2024-02-26T17:58:43;-19.93;53.95
75838;SHT30;64480;52.040;113.502;2024-02-26T18:01:47;-19.99;53.94
75838;SHT30;64480;52.040;113.502;2024-02-26T18:04:51;-19.98;54.46
75838;SHT30;64480;52.040;113.502;2024-02-26T18:07:57;-19.96;54.68
75838;SHT30;64480;52.040;113.502;2024-02-26T18:11:01;-19.89;54.88
75838;SHT30;64480;52.040;113.502;2024-02-26T18:14:05;-19.91;54.53
75838;SHT30;64480;52.040;113.502;2024-02-26T18:17:08;-20.01;54.16
75838;SHT30;64480;52.040;113.502;2024-02-26T18:20:12;-20.19;53.89
75838;SHT30;64480;52.040;113.502;2024-02-26T18:23:16;-20.31;54.01
75838;SHT30;64480;52.040;113.502;2024-02-26T18:26:20;-20.30;54.43
75838;SHT30;64480;52.040;113.502;2024-02-26T18:29:26;-20.27;54.39
75838;SHT30;64480;52.040;113.502;2024-02-26T18:32:30;-20.29;54.17
75838;SHT30;64480;52.040;113.502;2024-02-26T18:35:33;-20.23;54.25
75838;SHT30;64480;52.040;113.502;2024-02-26T18:38:36;-20.16;54.21
75838;SHT30;64480;52.040;113.502;2024-02-26T18:41:39;-20.23;53.92